sensor_id;sensor_type;location;lat;lon;timestamp;temperature;humidity
68450;SHT30;67758;39.572;2.652;2023-09-19T00:00:20;23.81;75.41
68450;SHT30;67758;39.572;2.652;2023-09-19T00:02:52;23.80;75.49
68450;SHT30;67758;39.572;2.652;2023-09-19T00:05:18;23.76;75.64
68450;SHT30;67758;39.572;2.652;2023-09-19T00:07:50;23.71;75.65
68450;SHT30;67758;39.572;2.652;2023-09-19T00:10:16;23.76;75.41
68450;SHT30;67758;39.572;2.652;2023-09-19T00:12:45;23.77;74.84
68450;SHT30;67758;39.572;2.652;2023-09-19T00:15:11;23.79;74.84
68450;SHT30;67758;39.572;2.652;2023-09-19T00:17:37;23.79;74.98
68450;SHT30;67758;39.572;2.652;2023-09-19T00:20:03;23.80;75.15
68450;SHT30;67758;39.572;2.652;2023-09-19T00:22:41;23.80;75.09
68450;SHT30;67758;39.572;2.652;2023-09-19T00:25:08;23.79;74.90
68450;SHT30;67758;39.572;2.652;2023-09-19T00:27:41;23.80;74.90
68450;SHT30;67758;39.572;2.652;2023-09-19T00:30:09;23.77;75.41
68450;SHT30;67758;39.572;2.652;2023-09-19T00:32:47;23.69;75.60
68450;SHT30;67758;39.572;2.652;2023-09-19T00:35:14;23.65;76.09
68450;SHT30;67758;39.572;2.652;2023-09-19T00:37:44;23.62;76.63
68450;SHT30;67758;39.572;2.652;2023-09-19T00:40:11;23.60;76.70
68450;SHT30;67758;39.572;2.652;2023-09-19T00:42:41;23.56;76.17
68450;SHT30;67758;39.572;2.652;2023-09-19T00:45:08;23.52;75.88
68450;SHT30;67758;39.572;2.652;2023-09-19T00:47:49;23.50;75.93
68450;SHT30;67758;39.572;2.652;2023-09-19T00:50:18;23.41;76.11
68450;SHT30;67758;39.572;2.652;2023-09-19T00:52:45;23.35;76.19
68450;SHT30;67758;39.572;2.652;2023-09-19T00:55:11;23.30;76.31
68450;SHT30;67758;39.572;2.652;2023-09-19T00:57:42;23.26;76.38
68450;SHT30;67758;39.572;2.652;2023-09-19T01:00:10;23.23;76.40
68450;SHT30;67758;39.572;2.652;2023-09-19T01:02:41;23.19;76.55
68450;SHT30;67758;39.572;2.652;2023-09-19T01:05:08;23.16;76.68
68450;SHT30;67758;39.572;2.652;2023-09-19T01:07:36;23.14;76.78
68450;SHT30;67758;39.572;2.652;2023-09-19T01:10:06;23.12;76.32
68450;SHT30;67758;39.572;2.652;2023-09-19T01:12:48;23.04;76.44
68450;SHT30;67758;39.572;2.652;2023-09-19T01:17:52;22.96;76.81
68450;SHT30;67758;39.572;2.652;2023-09-19T01:21:11;22.91;76.88
68450;SHT30;67758;39.572;2.652;2023-09-19T01:31:04;22.77;77.00
68450;SHT30;67758;39.572;2.652;2023-09-19T01:33:57;22.72;77.31
68450;SHT30;67758;39.572;2.652;2023-09-19T01:36:35;22.65;77.20
68450;SHT30;67758;39.572;2.652;2023-09-19T01:39:09;22.64;77.09
68450;SHT30;67758;39.572;2.652;2023-09-19T01:44:15;22.61;77.22
68450;SHT30;67758;39.572;2.652;2023-09-19T01:46:44;22.63;77.20
68450;SHT30;67758;39.572;2.652;2023-09-19T01:49:33;22.60;76.91
68450;SHT30;67758;39.572;2.652;2023-09-19T01:52:08;22.58;76.21
68450;SHT30;67758;39.572;2.652;2023-09-19T01:54:46;22.60;75.62
68450;SHT30;67758;39.572;2.652;2023-09-19T01:57:29;22.60;75.81
68450;SHT30;67758;39.572;2.652;2023-09-19T02:00:06;22.58;75.36
68450;SHT30;67758;39.572;2.652;2023-09-19T02:02:40;22.51;75.21
68450;SHT30;67758;39.572;2.652;2023-09-19T02:05:06;22.47;75.05
68450;SHT30;67758;39.572;2.652;2023-09-19T02:07:32;22.47;74.65
68450;SHT30;67758;39.572;2.652;2023-09-19T02:09:59;22.44;74.00
68450;SHT30;67758;39.572;2.652;2023-09-19T02:12:29;22.46;73.56
68450;SHT30;67758;39.572;2.652;2023-09-19T02:14:56;22.43;73.05
68450;SHT30;67758;39.572;2.652;2023-09-19T02:17:23;22.47;73.07
68450;SHT30;67758;39.572;2.652;2023-09-19T02:19:54;22.47;72.78
68450;SHT30;67758;39.572;2.652;2023-09-19T02:22:23;22.53;72.61
68450;SHT30;67758;39.572;2.652;2023-09-19T02:24:50;22.57;72.86
68450;SHT30;67758;39.572;2.652;2023-09-19T02:27:19;22.55;72.50
68450;SHT30;67758;39.572;2.652;2023-09-19T02:29:44;22.50;72.69
68450;SHT30;67758;39.572;2.652;2023-09-19T02:32:10;22.58;72.62
68450;SHT30;67758;39.572;2.652;2023-09-19T02:34:36;22.50;71.60
68450;SHT30;67758;39.572;2.652;2023-09-19T02:37:05;22.50;72.03
68450;SHT30;67758;39.572;2.652;2023-09-19T02:39:34;22.33;71.30
68450;SHT30;67758;39.572;2.652;2023-09-19T02:42:01;22.32;71.28
68450;SHT30;67758;39.572;2.652;2023-09-19T02:44:27;22.29;71.24
68450;SHT30;67758;39.572;2.652;2023-09-19T02:46:52;22.43;72.11
68450;SHT30;67758;39.572;2.652;2023-09-19T02:49:18;22.34;70.80
68450;SHT30;67758;39.572;2.652;2023-09-19T02:51:44;22.30;70.99
68450;SHT30;67758;39.572;2.652;2023-09-19T02:54:11;22.24;71.08
68450;SHT30;67758;39.572;2.652;2023-09-19T02:56:37;22.24;71.34
68450;SHT30;67758;39.572;2.652;2023-09-19T02:59:03;22.24;71.41
68450;SHT30;67758;39.572;2.652;2023-09-19T03:01:29;22.29;71.96
68450;SHT30;67758;39.572;2.652;2023-09-19T03:03:55;22.23;71.58
68450;SHT30;67758;39.572;2.652;2023-09-19T03:06:22;22.23;72.27
68450;SHT30;67758;39.572;2.652;2023-09-19T03:08:49;22.21;72.42
68450;SHT30;67758;39.572;2.652;2023-09-19T03:11:17;22.36;72.86
68450;SHT30;67758;39.572;2.652;2023-09-19T03:13:51;22.61;73.08
68450;SHT30;67758;39.572;2.652;2023-09-19T03:16:16;22.94;72.44
68450;SHT30;67758;39.572;2.652;2023-09-19T03:18:42;23.26;72.08
68450;SHT30;67758;39.572;2.652;2023-09-19T03:21:08;23.42;71.25
68450;SHT30;67758;39.572;2.652;2023-09-19T03:23:34;23.42;69.38
68450;SHT30;67758;39.572;2.652;2023-09-19T03:25:59;23.48;69.67
68450;SHT30;67758;39.572;2.652;2023-09-19T03:28:25;23.35;68.83
68450;SHT30;67758;39.572;2.652;2023-09-19T03:31:06;23.19;66.95
68450;SHT30;67758;39.572;2.652;2023-09-19T03:33:32;22.99;66.58
68450;SHT30;67758;39.572;2.652;2023-09-19T03:36:00;22.92;67.09
68450;SHT30;67758;39.572;2.652;2023-09-19T03:38:27;22.88;67.60
68450;SHT30;67758;39.572;2.652;2023-09-19T03:40:53;22.83;67.27
68450;SHT30;67758;39.572;2.652;2023-09-19T03:43:19;22.74;66.29
68450;SHT30;67758;39.572;2.652;2023-09-19T03:45:45;22.77;65.67
68450;SHT30;67758;39.572;2.652;2023-09-19T03:48:14;22.74;64.97
68450;SHT30;67758;39.572;2.652;2023-09-19T03:50:44;22.75;64.45
68450;SHT30;67758;39.572;2.652;2023-09-19T03:53:10;22.72;64.20
68450;SHT30;67758;39.572;2.652;2023-09-19T03:55:39;22.68;64.16
68450;SHT30;67758;39.572;2.652;2023-09-19T03:58:05;22.71;64.40
68450;SHT30;67758;39.572;2.652;2023-09-19T04:00:31;22.67;64.47
68450;SHT30;67758;39.572;2.652;2023-09-19T04:03:15;22.74;64.27
68450;SHT30;67758;39.572;2.652;2023-09-19T04:06:04;22.71;64.10
68450;SHT30;67758;39.572;2.652;2023-09-19T04:08:48;22.75;64.06
68450;SHT30;67758;39.572;2.652;2023-09-19T04:11:33;22.74;63.73
68450;SHT30;67758;39.572;2.652;2023-09-19T04:14:17;22.68;63.83
68450;SHT30;67758;39.572;2.652;2023-09-19T04:17:01;22.71;63.93
68450;SHT30;67758;39.572;2.652;2023-09-19T04:19:46;22.67;66.04
68450;SHT30;67758;39.572;2.652;2023-09-19T04:22:31;22.60;67.48
68450;SHT30;67758;39.572;2.652;2023-09-19T04:25:15;22.57;68.69
68450;SHT30;67758;39.572;2.652;2023-09-19T04:28:00;22.54;69.31
68450;SHT30;67758;39.572;2.652;2023-09-19T04:30:44;22.55;69.92
68450;SHT30;67758;39.572;2.652;2023-09-19T04:33:28;22.57;70.61
68450;SHT30;67758;39.572;2.652;2023-09-19T04:36:12;22.54;71.32
68450;SHT30;67758;39.572;2.652;2023-09-19T04:38:57;22.51;72.34
68450;SHT30;67758;39.572;2.652;2023-09-19T04:41:41;22.40;73.36
68450;SHT30;67758;39.572;2.652;2023-09-19T04:44:26;22.33;73.91
68450;SHT30;67758;39.572;2.652;2023-09-19T04:47:10;22.26;74.29
68450;SHT30;67758;39.572;2.652;2023-09-19T04:49:56;22.17;74.74
68450;SHT30;67758;39.572;2.652;2023-09-19T04:52:44;22.07;75.11
68450;SHT30;67758;39.572;2.652;2023-09-19T04:55:29;22.04;75.26
68450;SHT30;67758;39.572;2.652;2023-09-19T04:58:14;21.97;75.32
68450;SHT30;67758;39.572;2.652;2023-09-19T05:00:58;21.92;75.39
68450;SHT30;67758;39.572;2.652;2023-09-19T05:03:25;21.83;75.60
68450;SHT30;67758;39.572;2.652;2023-09-19T05:05:50;21.85;75.79
68450;SHT30;67758;39.572;2.652;2023-09-19T05:08:35;21.83;75.99
68450;SHT30;67758;39.572;2.652;2023-09-19T05:11:19;21.82;76.74
68450;SHT30;67758;39.572;2.652;2023-09-19T05:13:47;21.81;76.73
68450;SHT30;67758;39.572;2.652;2023-09-19T05:16:12;21.81;77.05
68450;SHT30;67758;39.572;2.652;2023-09-19T05:18:41;21.79;77.55
68450;SHT30;67758;39.572;2.652;2023-09-19T05:21:07;21.78;77.90
68450;SHT30;67758;39.572;2.652;2023-09-19T05:23:33;21.78;78.05
68450;SHT30;67758;39.572;2.652;2023-09-19T05:25:59;21.81;78.07
68450;SHT30;67758;39.572;2.652;2023-09-19T05:28:26;21.82;78.24
68450;SHT30;67758;39.572;2.652;2023-09-19T05:30:53;21.93;78.28
68450;SHT30;67758;39.572;2.652;2023-09-19T05:33:19;21.97;78.30
68450;SHT30;67758;39.572;2.652;2023-09-19T05:35:48;21.93;78.01
68450;SHT30;67758;39.572;2.652;2023-09-19T05:38:14;21.90;78.24
68450;SHT30;67758;39.572;2.652;2023-09-19T05:40:41;21.92;78.42
68450;SHT30;67758;39.572;2.652;2023-09-19T05:43:11;22.03;78.28
68450;SHT30;67758;39.572;2.652;2023-09-19T05:45:55;22.03;77.84
68450;SHT30;67758;39.572;2.652;2023-09-19T05:48:21;22.09;77.67
68450;SHT30;67758;39.572;2.652;2023-09-19T05:50:47;22.50;76.68
68450;SHT30;67758;39.572;2.652;2023-09-19T05:53:16;22.60;76.15
68450;SHT30;67758;39.572;2.652;2023-09-19T05:55:45;22.83;75.61
68450;SHT30;67758;39.572;2.652;2023-09-19T05:58:11;22.83;74.68
68450;SHT30;67758;39.572;2.652;2023-09-19T06:00:40;22.72;73.91
68450;SHT30;67758;39.572;2.652;2023-09-19T06:03:08;22.79;74.06
68450;SHT30;67758;39.572;2.652;2023-09-19T06:05:33;22.79;73.23
68450;SHT30;67758;39.572;2.652;2023-09-19T06:07:59;22.79;73.44
68450;SHT30;67758;39.572;2.652;2023-09-19T06:10:26;22.88;73.65
68450;SHT30;67758;39.572;2.652;2023-09-19T06:12:56;22.87;72.92
68450;SHT30;67758;39.572;2.652;2023-09-19T06:15:23;22.90;73.56
68450;SHT30;67758;39.572;2.652;2023-09-19T06:17:54;22.92;73.68
68450;SHT30;67758;39.572;2.652;2023-09-19T06:20:25;22.95;73.82
68450;SHT30;67758;39.572;2.652;2023-09-19T06:22:55;22.85;74.59
68450;SHT30;67758;39.572;2.652;2023-09-19T06:25:21;22.99;74.87
68450;SHT30;67758;39.572;2.652;2023-09-19T06:27:50;22.95;74.70
68450;SHT30;67758;39.572;2.652;2023-09-19T06:30:24;22.96;74.18
68450;SHT30;67758;39.572;2.652;2023-09-19T06:32:57;22.98;74.32
68450;SHT30;67758;39.572;2.652;2023-09-19T06:35:23;22.91;73.75
68450;SHT30;67758;39.572;2.652;2023-09-19T06:37:51;23.02;73.64
68450;SHT30;67758;39.572;2.652;2023-09-19T06:40:18;22.99;73.35
68450;SHT30;67758;39.572;2.652;2023-09-19T06:42:52;23.05;73.22
68450;SHT30;67758;39.572;2.652;2023-09-19T06:45:18;23.12;72.55
68450;SHT30;67758;39.572;2.652;2023-09-19T06:47:47;23.29;72.59
68450;SHT30;67758;39.572;2.652;2023-09-19T06:50:20;23.56;72.29
68450;SHT30;67758;39.572;2.652;2023-09-19T06:53:06;23.73;71.52
68450;SHT30;67758;39.572;2.652;2023-09-19T06:55:53;23.89;70.78
68450;SHT30;67758;39.572;2.652;2023-09-19T06:58:38;23.77;70.44
68450;SHT30;67758;39.572;2.652;2023-09-19T07:01:22;23.89;70.83
68450;SHT30;67758;39.572;2.652;2023-09-19T07:04:07;23.90;69.48
68450;SHT30;67758;39.572;2.652;2023-09-19T07:06:52;24.13;69.97
68450;SHT30;67758;39.572;2.652;2023-09-19T07:09:36;24.27;68.97
68450;SHT30;67758;39.572;2.652;2023-09-19T07:12:20;24.31;69.05
68450;SHT30;67758;39.572;2.652;2023-09-19T07:15:05;24.34;68.20
68450;SHT30;67758;39.572;2.652;2023-09-19T07:17:51;24.37;65.17
68450;SHT30;67758;39.572;2.652;2023-09-19T07:20:36;24.54;65.57
68450;SHT30;67758;39.572;2.652;2023-09-19T07:23:21;24.30;65.68
68450;SHT30;67758;39.572;2.652;2023-09-19T07:26:06;24.14;67.11
68450;SHT30;67758;39.572;2.652;2023-09-19T07:28:51;24.34;67.28
68450;SHT30;67758;39.572;2.652;2023-09-19T07:31:38;24.38;67.87
68450;SHT30;67758;39.572;2.652;2023-09-19T07:34:24;24.61;68.64
68450;SHT30;67758;39.572;2.652;2023-09-19T07:37:09;24.82;68.23
68450;SHT30;67758;39.572;2.652;2023-09-19T07:39:54;24.98;68.57
68450;SHT30;67758;39.572;2.652;2023-09-19T07:42:40;25.06;69.37
68450;SHT30;67758;39.572;2.652;2023-09-19T07:45:24;25.13;70.20
68450;SHT30;67758;39.572;2.652;2023-09-19T07:48:11;25.33;69.85
68450;SHT30;67758;39.572;2.652;2023-09-19T07:51:03;25.34;70.77
68450;SHT30;67758;39.572;2.652;2023-09-19T07:53:49;25.49;71.27
68450;SHT30;67758;39.572;2.652;2023-09-19T07:56:33;25.59;70.90
68450;SHT30;67758;39.572;2.652;2023-09-19T07:59:18;25.60;71.97
68450;SHT30;67758;39.572;2.652;2023-09-19T08:02:02;25.70;72.31
68450;SHT30;67758;39.572;2.652;2023-09-19T08:04:48;25.63;72.93
68450;SHT30;67758;39.572;2.652;2023-09-19T08:07:33;25.88;72.35
68450;SHT30;67758;39.572;2.652;2023-09-19T08:10:17;26.00;71.97
68450;SHT30;67758;39.572;2.652;2023-09-19T08:13:03;25.98;71.89
68450;SHT30;67758;39.572;2.652;2023-09-19T08:15:48;26.00;71.92
68450;SHT30;67758;39.572;2.652;2023-09-19T08:18:32;26.02;71.79
68450;SHT30;67758;39.572;2.652;2023-09-19T08:21:17;26.14;71.56
68450;SHT30;67758;39.572;2.652;2023-09-19T08:24:01;25.87;71.98
68450;SHT30;67758;39.572;2.652;2023-09-19T08:26:48;26.01;71.69
68450;SHT30;67758;39.572;2.652;2023-09-19T08:29:32;25.87;71.83
68450;SHT30;67758;39.572;2.652;2023-09-19T08:32:17;26.20;71.08
68450;SHT30;67758;39.572;2.652;2023-09-19T08:35:04;26.26;70.78
68450;SHT30;67758;39.572;2.652;2023-09-19T08:37:49;26.55;70.01
68450;SHT30;67758;39.572;2.652;2023-09-19T08:40:38;26.63;69.59
68450;SHT30;67758;39.572;2.652;2023-09-19T08:43:27;26.76;69.50
68450;SHT30;67758;39.572;2.652;2023-09-19T08:46:13;26.96;68.79
68450;SHT30;67758;39.572;2.652;2023-09-19T08:49:04;27.02;68.61
68450;SHT30;67758;39.572;2.652;2023-09-19T08:52:01;26.82;68.63
68450;SHT30;67758;39.572;2.652;2023-09-19T08:54:48;27.03;68.51
68450;SHT30;67758;39.572;2.652;2023-09-19T08:57:36;26.99;68.17
68450;SHT30;67758;39.572;2.652;2023-09-19T09:00:23;27.27;67.75
68450;SHT30;67758;39.572;2.652;2023-09-19T09:03:09;27.24;67.44
68450;SHT30;67758;39.572;2.652;2023-09-19T09:05:54;27.46;67.01
68450;SHT30;67758;39.572;2.652;2023-09-19T09:08:40;27.44;67.10
68450;SHT30;67758;39.572;2.652;2023-09-19T09:11:25;27.48;67.01
68450;SHT30;67758;39.572;2.652;2023-09-19T09:14:10;27.29;67.59
68450;SHT30;67758;39.572;2.652;2023-09-19T09:16:55;27.27;67.67
68450;SHT30;67758;39.572;2.652;2023-09-19T09:19:43;27.24;68.02
68450;SHT30;67758;39.572;2.652;2023-09-19T09:22:27;27.10;68.08
68450;SHT30;67758;39.572;2.652;2023-09-19T09:25:11;27.51;67.52
68450;SHT30;67758;39.572;2.652;2023-09-19T09:27:59;27.62;67.17
68450;SHT30;67758;39.572;2.652;2023-09-19T09:30:44;27.96;66.66
68450;SHT30;67758;39.572;2.652;2023-09-19T09:33:29;27.84;66.48
68450;SHT30;67758;39.572;2.652;2023-09-19T09:36:14;28.08;66.11
68450;SHT30;67758;39.572;2.652;2023-09-19T09:38:58;28.09;66.11
68450;SHT30;67758;39.572;2.652;2023-09-19T09:41:42;28.23;65.72
68450;SHT30;67758;39.572;2.652;2023-09-19T09:44:27;28.42;65.35
68450;SHT30;67758;39.572;2.652;2023-09-19T09:47:46;28.53;65.41
68450;SHT30;67758;39.572;2.652;2023-09-19T09:50:47;29.07;64.28
68450;SHT30;67758;39.572;2.652;2023-09-19T09:53:34;28.93;64.71
68450;SHT30;67758;39.572;2.652;2023-09-19T09:56:20;28.61;65.40
68450;SHT30;67758;39.572;2.652;2023-09-19T09:59:04;28.52;65.75
68450;SHT30;67758;39.572;2.652;2023-09-19T10:01:48;28.35;65.79
68450;SHT30;67758;39.572;2.652;2023-09-19T10:04:32;28.28;66.10
68450;SHT30;67758;39.572;2.652;2023-09-19T10:07:38;28.61;65.72
68450;SHT30;67758;39.572;2.652;2023-09-19T10:10:39;28.40;65.82
68450;SHT30;67758;39.572;2.652;2023-09-19T10:13:29;28.38;66.13
68450;SHT30;67758;39.572;2.652;2023-09-19T10:16:16;28.15;66.45
68450;SHT30;67758;39.572;2.652;2023-09-19T10:19:05;28.08;66.76
68450;SHT30;67758;39.572;2.652;2023-09-19T10:21:53;27.98;66.72
68450;SHT30;67758;39.572;2.652;2023-09-19T10:24:39;27.80;67.63
68450;SHT30;67758;39.572;2.652;2023-09-19T10:27:26;27.92;67.58
68450;SHT30;67758;39.572;2.652;2023-09-19T10:30:10;27.59;68.02
68450;SHT30;67758;39.572;2.652;2023-09-19T10:33:03;27.68;67.97
68450;SHT30;67758;39.572;2.652;2023-09-19T10:35:51;27.48;68.24
68450;SHT30;67758;39.572;2.652;2023-09-19T10:38:36;27.36;68.84
68450;SHT30;67758;39.572;2.652;2023-09-19T10:41:22;27.26;69.09
68450;SHT30;67758;39.572;2.652;2023-09-19T10:44:06;27.23;69.25
68450;SHT30;67758;39.572;2.652;2023-09-19T10:46:53;27.26;69.44
68450;SHT30;67758;39.572;2.652;2023-09-19T10:49:45;27.29;69.28
68450;SHT30;67758;39.572;2.652;2023-09-19T10:52:33;27.47;68.70
68450;SHT30;67758;39.572;2.652;2023-09-19T10:55:19;27.58;68.53
68450;SHT30;67758;39.572;2.652;2023-09-19T10:58:06;27.48;68.72
68450;SHT30;67758;39.572;2.652;2023-09-19T11:01:08;27.59;68.29
68450;SHT30;67758;39.572;2.652;2023-09-19T11:04:34;27.54;68.30
68450;SHT30;67758;39.572;2.652;2023-09-19T11:07:19;27.48;68.21
68450;SHT30;67758;39.572;2.652;2023-09-19T11:10:04;27.71;67.83
68450;SHT30;67758;39.572;2.652;2023-09-19T11:12:48;27.65;67.53
68450;SHT30;67758;39.572;2.652;2023-09-19T11:27:11;27.84;66.27
68450;SHT30;67758;39.572;2.652;2023-09-19T11:30:27;27.85;66.18
68450;SHT30;67758;39.572;2.652;2023-09-19T11:36:16;27.94;65.77
68450;SHT30;67758;39.572;2.652;2023-09-19T11:39:25;27.89;65.20
68450;SHT30;67758;39.572;2.652;2023-09-19T11:42:45;27.96;64.95
68450;SHT30;67758;39.572;2.652;2023-09-19T11:48:31;28.13;64.91
68450;SHT30;67758;39.572;2.652;2023-09-19T11:51:18;28.20;64.63
68450;SHT30;67758;39.572;2.652;2023-09-19T11:54:12;28.20;64.34
68450;SHT30;67758;39.572;2.652;2023-09-19T11:57:02;28.26;64.64
68450;SHT30;67758;39.572;2.652;2023-09-19T11:59:46;28.12;65.49
68450;SHT30;67758;39.572;2.652;2023-09-19T12:02:39;27.91;65.97
68450;SHT30;67758;39.572;2.652;2023-09-19T12:05:29;28.10;65.97
68450;SHT30;67758;39.572;2.652;2023-09-19T12:08:14;28.05;65.77
68450;SHT30;67758;39.572;2.652;2023-09-19T12:11:00;27.99;66.14
68450;SHT30;67758;39.572;2.652;2023-09-19T12:13:45;27.98;66.96
68450;SHT30;67758;39.572;2.652;2023-09-19T12:16:30;27.91;67.46
68450;SHT30;67758;39.572;2.652;2023-09-19T12:19:19;27.87;67.66
68450;SHT30;67758;39.572;2.652;2023-09-19T12:22:07;27.67;68.88
68450;SHT30;67758;39.572;2.652;2023-09-19T12:24:53;27.57;69.18
68450;SHT30;67758;39.572;2.652;2023-09-19T12:27:46;27.61;69.23
68450;SHT30;67758;39.572;2.652;2023-09-19T12:30:30;27.46;69.75
68450;SHT30;67758;39.572;2.652;2023-09-19T12:33:20;27.36;70.20
68450;SHT30;67758;39.572;2.652;2023-09-19T12:36:23;27.43;70.21
68450;SHT30;67758;39.572;2.652;2023-09-19T12:39:24;27.14;72.24
68450;SHT30;67758;39.572;2.652;2023-09-19T12:42:13;26.78;74.59
68450;SHT30;67758;39.572;2.652;2023-09-19T12:44:58;26.55;75.59
68450;SHT30;67758;39.572;2.652;2023-09-19T12:48:22;26.42;75.81
68450;SHT30;67758;39.572;2.652;2023-09-19T12:51:17;26.32;76.62
68450;SHT30;67758;39.572;2.652;2023-09-19T12:54:06;26.31;76.55
68450;SHT30;67758;39.572;2.652;2023-09-19T12:56:50;26.22;77.37
68450;SHT30;67758;39.572;2.652;2023-09-19T12:59:36;26.00;79.07
68450;SHT30;67758;39.572;2.652;2023-09-19T13:06:02;25.50;81.44
68450;SHT30;67758;39.572;2.652;2023-09-19T13:09:07;25.33;81.78
68450;SHT30;67758;39.572;2.652;2023-09-19T13:11:51;25.20;82.74
68450;SHT30;67758;39.572;2.652;2023-09-19T13:14:38;25.06;83.06
68450;SHT30;67758;39.572;2.652;2023-09-19T13:17:24;24.96;82.70
68450;SHT30;67758;39.572;2.652;2023-09-19T13:20:24;24.88;83.34
68450;SHT30;67758;39.572;2.652;2023-09-19T13:23:26;24.85;84.10
68450;SHT30;67758;39.572;2.652;2023-09-19T13:26:11;24.67;84.73
68450;SHT30;67758;39.572;2.652;2023-09-19T13:28:55;24.44;86.09
68450;SHT30;67758;39.572;2.652;2023-09-19T13:31:40;24.20;87.66
68450;SHT30;67758;39.572;2.652;2023-09-19T13:34:25;24.06;88.99
68450;SHT30;67758;39.572;2.652;2023-09-19T13:37:10;23.92;88.52
68450;SHT30;67758;39.572;2.652;2023-09-19T13:39:56;23.73;90.41
68450;SHT30;67758;39.572;2.652;2023-09-19T13:42:42;23.63;91.40
68450;SHT30;67758;39.572;2.652;2023-09-19T13:45:26;23.73;92.12
68450;SHT30;67758;39.572;2.652;2023-09-19T13:48:14;23.83;92.18
68450;SHT30;67758;39.572;2.652;2023-09-19T13:50:58;23.69;92.96
68450;SHT30;67758;39.572;2.652;2023-09-19T13:53:42;23.29;94.54
68450;SHT30;67758;39.572;2.652;2023-09-19T13:56:26;23.08;95.56
68450;SHT30;67758;39.572;2.652;2023-09-19T13:59:13;22.92;96.40
68450;SHT30;67758;39.572;2.652;2023-09-19T14:01:58;22.94;97.55
68450;SHT30;67758;39.572;2.652;2023-09-19T14:04:42;22.95;97.84
68450;SHT30;67758;39.572;2.652;2023-09-19T14:07:25;22.79;97.71
68450;SHT30;67758;39.572;2.652;2023-09-19T14:10:11;22.91;98.64
68450;SHT30;67758;39.572;2.652;2023-09-19T14:12:55;22.63;97.19
68450;SHT30;67758;39.572;2.652;2023-09-19T14:15:39;22.43;96.94
68450;SHT30;67758;39.572;2.652;2023-09-19T14:18:24;22.44;97.25
68450;SHT30;67758;39.572;2.652;2023-09-19T14:21:08;22.07;95.39
68450;SHT30;67758;39.572;2.652;2023-09-19T14:23:55;22.07;96.15
68450;SHT30;67758;39.572;2.652;2023-09-19T14:26:39;21.88;94.26
68450;SHT30;67758;39.572;2.652;2023-09-19T14:29:24;22.02;96.22
68450;SHT30;67758;39.572;2.652;2023-09-19T14:32:08;22.14;96.96
68450;SHT30;67758;39.572;2.652;2023-09-19T14:34:52;22.14;96.67
68450;SHT30;67758;39.572;2.652;2023-09-19T14:37:36;22.17;95.86
68450;SHT30;67758;39.572;2.652;2023-09-19T14:40:22;21.99;94.32
68450;SHT30;67758;39.572;2.652;2023-09-19T14:43:06;21.83;94.33
68450;SHT30;67758;39.572;2.652;2023-09-19T14:45:52;21.81;94.79
68450;SHT30;67758;39.572;2.652;2023-09-19T14:48:37;21.76;94.47
68450;SHT30;67758;39.572;2.652;2023-09-19T14:51:21;21.67;93.67
68450;SHT30;67758;39.572;2.652;2023-09-19T14:54:06;21.67;93.87
68450;SHT30;67758;39.572;2.652;2023-09-19T14:56:52;21.93;95.51
68450;SHT30;67758;39.572;2.652;2023-09-19T14:59:47;22.07;95.94
68450;SHT30;67758;39.572;2.652;2023-09-19T15:02:32;22.27;95.42
68450;SHT30;67758;39.572;2.652;2023-09-19T15:05:18;22.50;95.42
68450;SHT30;67758;39.572;2.652;2023-09-19T15:08:03;22.46;94.71
68450;SHT30;67758;39.572;2.652;2023-09-19T15:10:50;22.40;95.09
68450;SHT30;67758;39.572;2.652;2023-09-19T15:13:37;22.57;95.50
68450;SHT30;67758;39.572;2.652;2023-09-19T15:16:21;22.78;95.58
68450;SHT30;67758;39.572;2.652;2023-09-19T15:19:05;22.95;95.15
68450;SHT30;67758;39.572;2.652;2023-09-19T15:21:51;23.16;94.46
68450;SHT30;67758;39.572;2.652;2023-09-19T15:24:35;23.33;93.91
68450;SHT30;67758;39.572;2.652;2023-09-19T15:27:19;23.35;94.35
68450;SHT30;67758;39.572;2.652;2023-09-19T15:30:04;23.36;94.15
68450;SHT30;67758;39.572;2.652;2023-09-19T15:32:49;23.60;93.61
68450;SHT30;67758;39.572;2.652;2023-09-19T15:35:36;23.53;93.61
68450;SHT30;67758;39.572;2.652;2023-09-19T15:38:21;23.42;93.38
68450;SHT30;67758;39.572;2.652;2023-09-19T15:41:05;22.75;91.12
68450;SHT30;67758;39.572;2.652;2023-09-19T15:43:51;22.61;93.12
68450;SHT30;67758;39.572;2.652;2023-09-19T15:46:36;22.50;93.24
68450;SHT30;67758;39.572;2.652;2023-09-19T15:49:21;22.60;93.70
68450;SHT30;67758;39.572;2.652;2023-09-19T15:52:08;22.64;93.90
68450;SHT30;67758;39.572;2.652;2023-09-19T15:54:52;22.75;94.05
68450;SHT30;67758;39.572;2.652;2023-09-19T15:57:36;22.75;94.20
68450;SHT30;67758;39.572;2.652;2023-09-19T16:00:20;22.78;94.23
68450;SHT30;67758;39.572;2.652;2023-09-19T16:03:06;22.83;94.35
68450;SHT30;67758;39.572;2.652;2023-09-19T16:05:50;22.95;94.55
68450;SHT30;67758;39.572;2.652;2023-09-19T16:08:34;22.98;94.45
68450;SHT30;67758;39.572;2.652;2023-09-19T16:11:19;23.01;94.31
68450;SHT30;67758;39.572;2.652;2023-09-19T16:14:04;22.96;93.77
68450;SHT30;67758;39.572;2.652;2023-09-19T16:16:53;23.05;93.66
68450;SHT30;67758;39.572;2.652;2023-09-19T16:19:38;22.98;93.46
68450;SHT30;67758;39.572;2.652;2023-09-19T16:22:22;22.99;93.71
68450;SHT30;67758;39.572;2.652;2023-09-19T16:25:06;23.05;93.72
68450;SHT30;67758;39.572;2.652;2023-09-19T16:27:50;23.15;93.36
68450;SHT30;67758;39.572;2.652;2023-09-19T16:30:34;23.19;93.55
68450;SHT30;67758;39.572;2.652;2023-09-19T16:33:18;23.19;93.35
68450;SHT30;67758;39.572;2.652;2023-09-19T16:36:10;23.14;93.17
68450;SHT30;67758;39.572;2.652;2023-09-19T16:38:54;23.11;93.04
68450;SHT30;67758;39.572;2.652;2023-09-19T16:41:39;23.12;93.05
68450;SHT30;67758;39.572;2.652;2023-09-19T16:44:23;23.16;93.13
68450;SHT30;67758;39.572;2.652;2023-09-19T16:47:07;23.20;93.02
68450;SHT30;67758;39.572;2.652;2023-09-19T16:49:51;23.22;92.77
68450;SHT30;67758;39.572;2.652;2023-09-19T16:52:36;23.22;92.70
68450;SHT30;67758;39.572;2.652;2023-09-19T16:55:22;23.22;92.50
68450;SHT30;67758;39.572;2.652;2023-09-19T16:58:06;23.18;92.55
68450;SHT30;67758;39.572;2.652;2023-09-19T17:00:51;23.19;92.84
68450;SHT30;67758;39.572;2.652;2023-09-19T17:03:36;23.16;92.52
68450;SHT30;67758;39.572;2.652;2023-09-19T17:06:21;23.20;92.79
68450;SHT30;67758;39.572;2.652;2023-09-19T17:09:08;23.23;92.54
68450;SHT30;67758;39.572;2.652;2023-09-19T17:11:53;23.18;92.64
68450;SHT30;67758;39.572;2.652;2023-09-19T17:14:37;23.19;92.64
68450;SHT30;67758;39.572;2.652;2023-09-19T17:17:22;23.16;92.84
68450;SHT30;67758;39.572;2.652;2023-09-19T17:20:06;23.22;92.41
68450;SHT30;67758;39.572;2.652;2023-09-19T17:22:51;23.23;92.25
68450;SHT30;67758;39.572;2.652;2023-09-19T17:25:35;23.26;92.70
68450;SHT30;67758;39.572;2.652;2023-09-19T17:28:19;23.19;92.79